Medford, OR (97501)

5:37 PM PDT on September 04, 2015 (GMT -0700)
Southwest Medford (CW2551) | | Change Station
CLOSE
Current Station
Personal Weather Station
Location: Medford, OR
Elevation: 1472 ft
Nearby Weather Stations

Elev 1472 ft 42.31 °N, 122.90 °W | Updated 15 seconds ago

Overcast
Overcast
60.9 °F
Feels Like 60.9 °F
N
5.0
Wind Variable Wind from NNW
Gusts 5.0 mph

Today
High -- | Low -- °F
--% Chance of Precip.
Yesterday
High -- | Low -- °F
Precip. -- in
6:39 AM 7:40 PM
Waning Gibbous, 54% visible
Pressure 29.95 in
Visibility 10.0 miles
Clouds Few 4400 ft
Scattered Clouds 9000 ft
Mostly Cloudy 11000 ft
Dew Point 43 °F
Humidity 51%
Rainfall 0.00 in
Snow Depth Not available.
UV 0.0 out of 12
Pollen 4.60 out of 12
Air Quality Not available.
Flu Activity Not available.
SPECI KMFR 050016Z 32005KT 10SM FEW044 SCT090 BKN110 16/08 A2995 RMK AO2 WSHFT 2340 LTG DSNT SE RAE12 P0002 T01560083
Pressure 29.95 in
Visibility 10.0 miles
Clouds Few 4400 ft
Scattered Clouds 9000 ft
Mostly Cloudy 11000 ft
Dew Point 43 °F
Humidity 51%
Rainfall 0.00 in
Snow Depth Not available.
UV 0.0 out of 12
Pollen 4.60 out of 12
Air Quality Not available.
Flu Activity Not available.
SPECI KMFR 050016Z 32005KT 10SM FEW044 SCT090 BKN110 16/08 A2995 RMK AO2 WSHFT 2340 LTG DSNT SE RAE12 P0002 T01560083

10-Day Weather Forecast

×

Almanac

Astronomy

Sep. 04, 2015 Rise Set
Actual Time
Civil Twilight
Nautical Twilight
Astronomical Twilight
Moon
Length of Visible Light
Length of Day
Tomorrow will be .
, % of the Moon is Illuminated

Today's Extremes

State Highs State Lows

Community

WunderPhotos

Upload Photos

1,852,363 photos uploaded!

WunderBlogs® & News

Nearby

Air Quality

  Air Quality AQ Index Pollutant
Not available.

Snow Depth

Station Depth Elevation

Earthquake Activity

City Distance Mag. Time & Date
Minimum magnitude displayed is 2.5.

Coastal Water Temperatures

Place Temperature

Stations

Nearby Weather Stations

Station Location Temp. Windchill Dew Point Humidity Wind Precip. Elev Updated Type